Historyczne dane pomiarowe

Dodano dane terminowe – wersja testowa.

Dane z okresu 1951-2019

Wersja bazy: 1.34 [2019-03-16, lista zmian], aktualizacja planowana na 2019-04-15

Dane meteo z obszaru Polski uzyskane na podstawie danych udostępnionych przez Instytut Meteorologii i Gospodarki Wodnej – Państwowy Instytut Badawczy.

 

Wybierz Datę:    

       

TemperaturaWilgotnośćWiatrCiśnienieOpadyŚniegCzas trwania zjawisk
 Stacja t tx tn tng RH VA  wxwx mslp ppp RRR   cm mm wxwxwxwxwxwxwx
1987-08-14 14.3 20.5 6.5- 68.3- 6.3 0.3---- 0.0------------
1987-08-13 12.0 16.3 5.5- 73.8- 5.3 1.0---- 0.0------------
1987-08-12 11.7 16.5 6.5- 76.5- 3.0 2.7---- 0.0------------
1987-08-11 12.1 17.1 9.6- 77.8- 6.7 3.7---- 0.0------------
1987-08-10 14.1 18.1 12.4- 94.5- 8.0 1.3---- 7.2------------
1987-08-09 15.2 22.1 7.9- 62.8- 3.3 1.7---- 0.0------------
1987-08-08 13.5 18.1 5.0- 70.0- 4.0 1.0---- 0.0------------
1987-08-07 11.2 16.1 5.8- 70.5- 6.7 1.0---- 0.4------------
1987-08-06 11.0 14.6 8.2- 85.5- 8.0 1.0---- 2.4------------
1987-08-05 12.4 15.1 9.0- 78.5- 8.0 1.0---- 0.0------------
1987-08-04 14.1 17.3 11.4- 81.0- 7.0 2.3---- 2.0------------
1987-08-03 13.4 19.1 9.8- 83.5- 5.3 1.0---- 0.0------------
1987-08-02 14.3 17.7 10.8- 77.5- 4.7 3.0---- 2.2------------
1987-08-01 14.7 21.5 7.5- 75.0- 3.3 2.7---- 0.3------------
1987-07-31 16.7 20.3 12.4- 70.8- 8.0 3.3---- 4.0------------
1987-07-30 17.2 22.1 11.8- 66.3- 4.3 1.0---- 0.2------------
1987-07-29 12.9 17.7 8.4- 71.5- 4.3 1.0---- 0.0------------
1987-07-28 12.4 15.1 9.8- 84.3- 8.0 1.0---- 2.6------------
1987-07-27 11.7 18.1 7.7- 69.3- 5.3 3.0---- 0.8------------
1987-07-26 13.1 19.1 9.6- 96.5- 8.0 1.0---- 9.0------------
1987-07-25 17.9 23.1 13.5- 85.5- 3.7 0.7---- 0.0------------
1987-07-24 19.8 26.2 16.5- 78.0- 5.0 1.3---- 5.2------------
1987-07-23 20.8 26.0 13.9- 80.8- 2.7 0.7---- 0.6------------
1987-07-22 19.3 22.1 15.9- 83.5- 6.0 1.7---- 0.0------------
1987-07-21 19.7 25.1 13.9- 81.5- 2.3 1.0---- 0.0------------
1987-07-20 21.0 24.7 18.4- 75.5- 4.3 1.0---- 0.0------------
1987-07-19 24.1 29.4 19.6- 67.5- 4.0 1.0---- 0.0------------
1987-07-18 23.5 28.6 18.6- 62.0- 1.3 0.3---- 0.0------------
1987-07-17 23.3 27.0 19.0- 58.8- 6.3 0.7---- 0.0------------
1987-07-16 19.8 26.0 11.8- 69.3- 3.3 1.0---- 0.0------------
1987-07-15 15.9 21.1 9.6- 69.3- 0.0 1.7---- 0.0------------
1987-07-14 15.6 19.1 12.2- 67.3- 3.7 0.3---- 0.0------------
1987-07-13 17.8 25.1 13.9- 77.5- 3.7 2.0---- 0.0------------
1987-07-12 22.1 28.6 14.3- 51.5- 2.7 1.0---- 4.8------------
1987-07-11 15.6 22.7 7.9- 70.5- 1.0 0.3---- 0.0------------
1987-07-10 14.3 18.1 10.2- 74.0- 3.0 3.0---- 0.0------------
1987-07-09 17.9 24.1 12.9- 74.3- 6.7 0.7---- 5.6------------
1987-07-08 20.1 28.0 10.0- 50.3- 0.0 0.0---- 0.0------------
1987-07-07 17.8 24.7 8.8- 53.0- 0.7 2.0---- 0.0------------
1987-07-06 15.7 21.7 8.8- 75.3- 0.7 0.0---- 0.0------------
1987-07-05 14.6 19.1 11.8- 76.5- 7.0 2.3---- 2.5------------
1987-07-04 17.4 21.5 13.5- 70.5- 6.3 0.0---- 0.6------------
1987-07-03 16.5 20.5 14.0- 80.5- 8.0 0.0---- 0.0------------
1987-07-02 18.8 25.4 16.7- 94.0- 6.7 0.3---- 0.7------------
1987-07-01 24.0 29.0 18.6- 68.3- 3.7 0.0---- 0.0------------
1987-06-30 21.5 27.4 14.5- 75.3- 0.3 0.0---- 0.0------------
1987-06-29 19.3 23.5 10.8- 73.0- 2.7 1.0---- 0.0------------
1987-06-28 17.7 23.1 8.8- 76.5- 4.0 2.3---- 0.0------------
1987-06-27 18.2 22.7 15.1- 73.0- 6.3 1.7---- 7.3------------
1987-06-26 16.0 22.5 6.9- 66.0- 2.0 1.0---- 0.0------------
1987-06-25 14.2 17.1 12.9- 77.0- 7.7 2.3---- 0.1------------
1987-06-24 15.5 18.7 11.4- 75.3- 5.7 1.3---- 0.0------------
1987-06-23 14.8 19.1 10.8- 83.8- 7.7 2.3---- 0.0------------
1987-06-22 14.8 19.7 10.8- 84.3- 7.0 1.3---- 0.0------------
1987-06-21 15.5 21.0 9.2- 68.0- 4.0 1.0---- 0.0------------
1987-06-20 14.7 20.5 7.5- 64.3- 2.3 2.7---- 0.0------------
1987-06-19 11.0 16.1 5.9- 70.8- 2.3 1.0---- 0.0------------
1987-06-18 10.2 15.7 5.0- 74.0- 3.3 1.7---- 3.6------------
1987-06-17 9.4 13.0 7.5- 87.3- 8.0 1.7---- 1.1------------
1987-06-16 16.2 22.1 10.2- 66.5- 8.0 5.7---- 0.7------------
582.4 ms

 

Źródłem pochodzenia danych jest Instytut Meteorologii i Gospodarki Wodnej – Państwowy Instytut Badawczy. Dane Instytutu Meteorologii i Gospodarki Wodnej – Państwowego Instytutu Badawczego zostały przetworzone.

Dane źródłowe można odnaleźć na stronie https://dane.imgw.pl